sensor_id;sensor_type;location;lat;lon;timestamp;P1;durP1;ratioP1;P2;durP2;ratioP2
8413;SDS011;4244;48.684;9.028;2022-11-15T00:01:35;4.40;;;3.47;;
8413;SDS011;4244;48.684;9.028;2022-11-15T00:04:02;3.40;;;2.93;;
8413;SDS011;4244;48.684;9.028;2022-11-15T00:06:29;5.17;;;3.50;;
8413;SDS011;4244;48.684;9.028;2022-11-15T00:08:54;3.90;;;3.03;;
8413;SDS011;4244;48.684;9.028;2022-11-15T00:11:22;4.43;;;2.70;;
8413;SDS011;4244;48.684;9.028;2022-11-15T00:13:48;4.20;;;2.80;;
8413;SDS011;4244;48.684;9.028;2022-11-15T00:16:13;3.70;;;3.13;;
8413;SDS011;4244;48.684;9.028;2022-11-15T00:18:39;4.53;;;2.77;;
8413;SDS011;4244;48.684;9.028;2022-11-15T00:21:06;3.03;;;2.53;;
8413;SDS011;4244;48.684;9.028;2022-11-15T00:23:34;4.37;;;3.10;;
8413;SDS011;4244;48.684;9.028;2022-11-15T00:26:01;3.77;;;3.20;;
8413;SDS011;4244;48.684;9.028;2022-11-15T00:28:27;3.50;;;3.00;;
8413;SDS011;4244;48.684;9.028;2022-11-15T00:30:52;3.73;;;3.20;;
8413;SDS011;4244;48.684;9.028;2022-11-15T00:33:18;3.07;;;2.63;;
8413;SDS011;4244;48.684;9.028;2022-11-15T00:35:44;3.10;;;2.60;;
8413;SDS011;4244;48.684;9.028;2022-11-15T00:38:10;3.60;;;2.90;;
8413;SDS011;4244;48.684;9.028;2022-11-15T00:40:35;3.00;;;2.57;;
8413;SDS011;4244;48.684;9.028;2022-11-15T00:43:01;3.13;;;2.83;;
8413;SDS011;4244;48.684;9.028;2022-11-15T00:45:26;2.83;;;2.60;;
8413;SDS011;4244;48.684;9.028;2022-11-15T00:47:52;4.47;;;2.90;;
8413;SDS011;4244;48.684;9.028;2022-11-15T00:50:18;3.83;;;3.10;;
8413;SDS011;4244;48.684;9.028;2022-11-15T00:52:44;3.77;;;3.10;;
8413;SDS011;4244;48.684;9.028;2022-11-15T00:55:16;3.07;;;2.50;;
8413;SDS011;4244;48.684;9.028;2022-11-15T00:57:42;3.50;;;2.87;;
8413;SDS011;4244;48.684;9.028;2022-11-15T01:00:08;3.33;;;2.63;;
8413;SDS011;4244;48.684;9.028;2022-11-15T01:02:35;3.10;;;2.80;;
8413;SDS011;4244;48.684;9.028;2022-11-15T01:05:00;3.00;;;2.40;;
8413;SDS011;4244;48.684;9.028;2022-11-15T01:07:26;3.07;;;2.20;;
8413;SDS011;4244;48.684;9.028;2022-11-15T01:09:51;4.07;;;2.73;;
8413;SDS011;4244;48.684;9.028;2022-11-15T01:12:17;6.30;;;2.90;;
8413;SDS011;4244;48.684;9.028;2022-11-15T01:14:43;4.87;;;2.90;;
8413;SDS011;4244;48.684;9.028;2022-11-15T01:17:10;3.80;;;3.27;;
8413;SDS011;4244;48.684;9.028;2022-11-15T01:19:39;3.20;;;2.90;;
8413;SDS011;4244;48.684;9.028;2022-11-15T01:22:05;3.73;;;2.67;;
8413;SDS011;4244;48.684;9.028;2022-11-15T01:24:30;4.03;;;2.93;;
8413;SDS011;4244;48.684;9.028;2022-11-15T01:26:56;6.20;;;3.20;;
8413;SDS011;4244;48.684;9.028;2022-11-15T01:29:21;4.13;;;3.30;;
8413;SDS011;4244;48.684;9.028;2022-11-15T01:31:47;3.70;;;3.17;;
8413;SDS011;4244;48.684;9.028;2022-11-15T01:34:13;2.63;;;2.40;;
8413;SDS011;4244;48.684;9.028;2022-11-15T01:36:40;3.43;;;2.80;;
8413;SDS011;4244;48.684;9.028;2022-11-15T01:39:05;3.47;;;2.83;;
8413;SDS011;4244;48.684;9.028;2022-11-15T01:41:32;3.00;;;2.70;;
8413;SDS011;4244;48.684;9.028;2022-11-15T01:44:31;3.70;;;2.93;;
8413;SDS011;4244;48.684;9.028;2022-11-15T01:46:59;2.80;;;2.50;;
8413;SDS011;4244;48.684;9.028;2022-11-15T01:49:27;3.50;;;2.90;;
8413;SDS011;4244;48.684;9.028;2022-11-15T01:51:55;3.40;;;2.97;;
8413;SDS011;4244;48.684;9.028;2022-11-15T01:54:21;3.20;;;2.90;;
8413;SDS011;4244;48.684;9.028;2022-11-15T01:56:57;3.30;;;2.60;;
8413;SDS011;4244;48.684;9.028;2022-11-15T01:59:26;3.80;;;2.97;;
8413;SDS011;4244;48.684;9.028;2022-11-15T02:01:51;4.17;;;3.20;;
8413;SDS011;4244;48.684;9.028;2022-11-15T02:04:21;3.23;;;2.77;;
8413;SDS011;4244;48.684;9.028;2022-11-15T02:06:49;3.70;;;2.80;;
8413;SDS011;4244;48.684;9.028;2022-11-15T02:09:16;4.77;;;3.23;;
8413;SDS011;4244;48.684;9.028;2022-11-15T02:11:42;3.43;;;2.50;;
8413;SDS011;4244;48.684;9.028;2022-11-15T02:14:09;3.57;;;3.00;;
8413;SDS011;4244;48.684;9.028;2022-11-15T02:16:41;3.77;;;3.00;;
8413;SDS011;4244;48.684;9.028;2022-11-15T02:38:24;3.40;;;2.77;;
8413;SDS011;4244;48.684;9.028;2022-11-15T02:41:27;3.03;;;2.73;;
8413;SDS011;4244;48.684;9.028;2022-11-15T02:46:54;3.03;;;2.63;;
8413;SDS011;4244;48.684;9.028;2022-11-15T02:49:44;3.23;;;2.70;;
8413;SDS011;4244;48.684;9.028;2022-11-15T02:52:19;3.23;;;2.77;;
8413;SDS011;4244;48.684;9.028;2022-11-15T02:54:55;4.23;;;3.00;;
8413;SDS011;4244;48.684;9.028;2022-11-15T03:05:15;2.60;;;2.40;;
8413;SDS011;4244;48.684;9.028;2022-11-15T03:12:54;3.57;;;2.40;;
8413;SDS011;4244;48.684;9.028;2022-11-15T03:15:23;3.67;;;2.50;;
8413;SDS011;4244;48.684;9.028;2022-11-15T03:21:02;3.50;;;3.20;;
8413;SDS011;4244;48.684;9.028;2022-11-15T03:23:30;2.50;;;2.17;;
8413;SDS011;4244;48.684;9.028;2022-11-15T03:25:56;6.80;;;2.80;;
8413;SDS011;4244;48.684;9.028;2022-11-15T03:28:24;3.03;;;2.73;;
8413;SDS011;4244;48.684;9.028;2022-11-15T03:30:53;2.70;;;2.27;;
8413;SDS011;4244;48.684;9.028;2022-11-15T03:33:20;3.60;;;2.47;;
8413;SDS011;4244;48.684;9.028;2022-11-15T03:35:46;6.67;;;2.80;;
8413;SDS011;4244;48.684;9.028;2022-11-15T03:40:54;3.50;;;2.87;;
8413;SDS011;4244;48.684;9.028;2022-11-15T03:46:14;2.80;;;2.43;;
8413;SDS011;4244;48.684;9.028;2022-11-15T03:48:49;2.53;;;1.93;;
8413;SDS011;4244;48.684;9.028;2022-11-15T03:51:17;2.90;;;2.40;;
8413;SDS011;4244;48.684;9.028;2022-11-15T03:53:43;3.10;;;2.50;;
8413;SDS011;4244;48.684;9.028;2022-11-15T03:56:08;4.03;;;2.80;;
8413;SDS011;4244;48.684;9.028;2022-11-15T03:58:34;3.43;;;2.90;;
8413;SDS011;4244;48.684;9.028;2022-11-15T04:01:00;2.80;;;1.97;;
8413;SDS011;4244;48.684;9.028;2022-11-15T04:03:25;2.97;;;2.20;;
8413;SDS011;4244;48.684;9.028;2022-11-15T04:05:51;4.30;;;3.00;;
8413;SDS011;4244;48.684;9.028;2022-11-15T04:08:16;2.77;;;2.40;;
8413;SDS011;4244;48.684;9.028;2022-11-15T04:10:42;3.00;;;2.50;;
8413;SDS011;4244;48.684;9.028;2022-11-15T04:13:08;7.90;;;2.90;;
8413;SDS011;4244;48.684;9.028;2022-11-15T04:15:33;4.00;;;2.70;;
8413;SDS011;4244;48.684;9.028;2022-11-15T04:17:59;2.70;;;2.07;;
8413;SDS011;4244;48.684;9.028;2022-11-15T04:20:26;2.90;;;2.47;;
8413;SDS011;4244;48.684;9.028;2022-11-15T04:23:17;3.10;;;2.70;;
8413;SDS011;4244;48.684;9.028;2022-11-15T04:26:04;2.40;;;2.10;;
8413;SDS011;4244;48.684;9.028;2022-11-15T04:28:30;2.77;;;2.30;;
8413;SDS011;4244;48.684;9.028;2022-11-15T04:30:56;2.90;;;2.37;;
8413;SDS011;4244;48.684;9.028;2022-11-15T04:33:22;2.57;;;2.37;;
8413;SDS011;4244;48.684;9.028;2022-11-15T04:35:48;3.63;;;2.83;;
8413;SDS011;4244;48.684;9.028;2022-11-15T04:38:34;2.80;;;2.40;;
8413;SDS011;4244;48.684;9.028;2022-11-15T04:41:00;2.43;;;2.23;;
8413;SDS011;4244;48.684;9.028;2022-11-15T04:43:26;2.47;;;2.23;;
8413;SDS011;4244;48.684;9.028;2022-11-15T04:45:52;2.67;;;2.47;;
8413;SDS011;4244;48.684;9.028;2022-11-15T04:48:18;2.60;;;2.40;;
8413;SDS011;4244;48.684;9.028;2022-11-15T04:50:44;3.40;;;2.50;;
8413;SDS011;4244;48.684;9.028;2022-11-15T04:53:09;3.60;;;3.20;;
8413;SDS011;4244;48.684;9.028;2022-11-15T04:55:35;2.60;;;2.37;;
8413;SDS011;4244;48.684;9.028;2022-11-15T04:58:01;3.30;;;2.70;;
8413;SDS011;4244;48.684;9.028;2022-11-15T05:00:28;3.90;;;2.80;;
8413;SDS011;4244;48.684;9.028;2022-11-15T05:02:54;3.20;;;2.23;;
8413;SDS011;4244;48.684;9.028;2022-11-15T05:05:38;3.33;;;2.37;;
8413;SDS011;4244;48.684;9.028;2022-11-15T05:08:04;2.40;;;2.20;;
8413;SDS011;4244;48.684;9.028;2022-11-15T05:10:30;3.63;;;2.63;;
8413;SDS011;4244;48.684;9.028;2022-11-15T05:12:56;3.77;;;2.83;;
8413;SDS011;4244;48.684;9.028;2022-11-15T05:15:21;4.43;;;2.83;;
8413;SDS011;4244;48.684;9.028;2022-11-15T05:17:47;3.13;;;2.67;;
8413;SDS011;4244;48.684;9.028;2022-11-15T05:20:12;3.43;;;2.43;;
8413;SDS011;4244;48.684;9.028;2022-11-15T05:22:38;2.73;;;2.50;;
8413;SDS011;4244;48.684;9.028;2022-11-15T05:25:04;3.77;;;2.60;;
8413;SDS011;4244;48.684;9.028;2022-11-15T05:27:30;8.23;;;3.10;;
8413;SDS011;4244;48.684;9.028;2022-11-15T05:29:56;3.57;;;2.47;;
8413;SDS011;4244;48.684;9.028;2022-11-15T05:32:21;2.63;;;2.33;;
8413;SDS011;4244;48.684;9.028;2022-11-15T05:34:47;3.00;;;2.33;;
8413;SDS011;4244;48.684;9.028;2022-11-15T05:37:13;2.80;;;2.30;;
8413;SDS011;4244;48.684;9.028;2022-11-15T05:39:39;3.30;;;2.93;;
8413;SDS011;4244;48.684;9.028;2022-11-15T05:42:10;2.87;;;2.53;;
8413;SDS011;4244;48.684;9.028;2022-11-15T05:44:39;3.57;;;2.53;;
8413;SDS011;4244;48.684;9.028;2022-11-15T05:47:07;2.93;;;2.63;;
8413;SDS011;4244;48.684;9.028;2022-11-15T05:49:34;3.17;;;2.77;;
8413;SDS011;4244;48.684;9.028;2022-11-15T05:52:02;5.00;;;2.53;;
8413;SDS011;4244;48.684;9.028;2022-11-15T05:54:30;2.60;;;2.40;;
8413;SDS011;4244;48.684;9.028;2022-11-15T05:56:56;3.37;;;2.57;;
8413;SDS011;4244;48.684;9.028;2022-11-15T05:59:22;3.10;;;2.80;;
8413;SDS011;4244;48.684;9.028;2022-11-15T06:01:48;2.83;;;2.53;;
8413;SDS011;4244;48.684;9.028;2022-11-15T06:04:14;4.30;;;2.60;;
8413;SDS011;4244;48.684;9.028;2022-11-15T06:06:39;2.67;;;2.20;;
8413;SDS011;4244;48.684;9.028;2022-11-15T06:09:05;2.57;;;2.10;;
8413;SDS011;4244;48.684;9.028;2022-11-15T06:11:30;2.90;;;2.40;;
8413;SDS011;4244;48.684;9.028;2022-11-15T06:13:56;6.17;;;2.50;;
8413;SDS011;4244;48.684;9.028;2022-11-15T06:16:22;3.07;;;2.67;;
8413;SDS011;4244;48.684;9.028;2022-11-15T06:18:47;3.90;;;2.90;;
8413;SDS011;4244;48.684;9.028;2022-11-15T06:21:13;3.03;;;2.37;;
8413;SDS011;4244;48.684;9.028;2022-11-15T06:23:38;4.37;;;2.20;;
8413;SDS011;4244;48.684;9.028;2022-11-15T06:26:04;3.07;;;2.30;;
8413;SDS011;4244;48.684;9.028;2022-11-15T06:28:31;4.00;;;2.27;;
8413;SDS011;4244;48.684;9.028;2022-11-15T06:31:04;3.00;;;2.50;;
8413;SDS011;4244;48.684;9.028;2022-11-15T06:33:36;2.63;;;2.40;;
8413;SDS011;4244;48.684;9.028;2022-11-15T06:36:02;3.30;;;2.60;;
8413;SDS011;4244;48.684;9.028;2022-11-15T06:38:29;3.63;;;3.33;;
8413;SDS011;4244;48.684;9.028;2022-11-15T06:40:55;5.10;;;2.40;;
8413;SDS011;4244;48.684;9.028;2022-11-15T06:43:25;2.60;;;2.10;;
8413;SDS011;4244;48.684;9.028;2022-11-15T06:45:51;3.13;;;2.57;;
8413;SDS011;4244;48.684;9.028;2022-11-15T06:48:17;4.07;;;2.90;;
8413;SDS011;4244;48.684;9.028;2022-11-15T06:50:42;2.97;;;2.77;;
8413;SDS011;4244;48.684;9.028;2022-11-15T06:53:08;2.67;;;2.47;;
8413;SDS011;4244;48.684;9.028;2022-11-15T06:55:33;2.70;;;2.10;;
8413;SDS011;4244;48.684;9.028;2022-11-15T06:57:59;3.00;;;2.70;;
8413;SDS011;4244;48.684;9.028;2022-11-15T07:00:24;3.90;;;2.80;;
8413;SDS011;4244;48.684;9.028;2022-11-15T07:02:50;4.07;;;3.57;;
8413;SDS011;4244;48.684;9.028;2022-11-15T07:05:16;3.70;;;3.40;;
8413;SDS011;4244;48.684;9.028;2022-11-15T07:07:42;3.90;;;2.73;;
8413;SDS011;4244;48.684;9.028;2022-11-15T07:10:07;3.70;;;3.00;;
8413;SDS011;4244;48.684;9.028;2022-11-15T07:12:35;3.67;;;2.90;;
8413;SDS011;4244;48.684;9.028;2022-11-15T07:15:01;3.37;;;2.97;;
8413;SDS011;4244;48.684;9.028;2022-11-15T07:17:27;2.97;;;2.47;;
8413;SDS011;4244;48.684;9.028;2022-11-15T07:19:52;4.07;;;2.70;;
8413;SDS011;4244;48.684;9.028;2022-11-15T07:22:18;3.10;;;2.40;;
8413;SDS011;4244;48.684;9.028;2022-11-15T07:24:43;3.80;;;2.77;;
8413;SDS011;4244;48.684;9.028;2022-11-15T07:27:09;4.30;;;2.90;;
8413;SDS011;4244;48.684;9.028;2022-11-15T07:29:35;3.50;;;2.80;;
8413;SDS011;4244;48.684;9.028;2022-11-15T07:32:00;3.93;;;2.57;;
8413;SDS011;4244;48.684;9.028;2022-11-15T07:34:26;3.73;;;2.30;;
8413;SDS011;4244;48.684;9.028;2022-11-15T07:36:52;4.17;;;2.50;;
8413;SDS011;4244;48.684;9.028;2022-11-15T07:39:17;3.20;;;2.67;;
8413;SDS011;4244;48.684;9.028;2022-11-15T07:41:43;2.53;;;2.30;;
8413;SDS011;4244;48.684;9.028;2022-11-15T07:44:08;2.83;;;2.30;;
8413;SDS011;4244;48.684;9.028;2022-11-15T07:46:34;2.53;;;2.33;;
8413;SDS011;4244;48.684;9.028;2022-11-15T07:48:59;2.80;;;2.30;;
8413;SDS011;4244;48.684;9.028;2022-11-15T07:51:25;3.93;;;2.70;;
8413;SDS011;4244;48.684;9.028;2022-11-15T07:53:51;3.77;;;2.20;;
8413;SDS011;4244;48.684;9.028;2022-11-15T07:56:16;3.00;;;2.60;;
8413;SDS011;4244;48.684;9.028;2022-11-15T07:58:42;4.50;;;2.57;;
8413;SDS011;4244;48.684;9.028;2022-11-15T08:01:09;6.30;;;3.00;;
8413;SDS011;4244;48.684;9.028;2022-11-15T08:03:35;3.87;;;3.20;;
8413;SDS011;4244;48.684;9.028;2022-11-15T08:06:00;3.47;;;2.40;;
8413;SDS011;4244;48.684;9.028;2022-11-15T08:08:26;3.90;;;3.13;;
8413;SDS011;4244;48.684;9.028;2022-11-15T08:10:52;3.30;;;2.60;;
8413;SDS011;4244;48.684;9.028;2022-11-15T08:13:18;4.37;;;2.47;;
8413;SDS011;4244;48.684;9.028;2022-11-15T08:15:46;3.60;;;2.27;;
8413;SDS011;4244;48.684;9.028;2022-11-15T08:18:12;2.93;;;2.40;;
8413;SDS011;4244;48.684;9.028;2022-11-15T08:20:39;2.47;;;2.20;;
8413;SDS011;4244;48.684;9.028;2022-11-15T08:23:06;1.87;;;1.70;;
8413;SDS011;4244;48.684;9.028;2022-11-15T08:25:33;2.50;;;2.20;;
8413;SDS011;4244;48.684;9.028;2022-11-15T08:28:00;3.03;;;2.40;;
8413;SDS011;4244;48.684;9.028;2022-11-15T08:30:27;3.47;;;2.30;;
8413;SDS011;4244;48.684;9.028;2022-11-15T08:32:56;3.07;;;2.30;;
8413;SDS011;4244;48.684;9.028;2022-11-15T08:35:22;3.50;;;2.20;;
8413;SDS011;4244;48.684;9.028;2022-11-15T08:37:48;2.90;;;2.57;;
8413;SDS011;4244;48.684;9.028;2022-11-15T08:40:14;3.17;;;2.57;;
8413;SDS011;4244;48.684;9.028;2022-11-15T08:42:40;3.53;;;2.00;;
8413;SDS011;4244;48.684;9.028;2022-11-15T08:45:06;2.10;;;1.90;;
8413;SDS011;4244;48.684;9.028;2022-11-15T08:47:33;4.00;;;2.10;;
8413;SDS011;4244;48.684;9.028;2022-11-15T08:49:58;3.17;;;2.00;;
8413;SDS011;4244;48.684;9.028;2022-11-15T08:52:24;2.93;;;2.10;;
8413;SDS011;4244;48.684;9.028;2022-11-15T08:54:50;2.43;;;2.00;;
8413;SDS011;4244;48.684;9.028;2022-11-15T08:57:15;3.50;;;2.20;;
8413;SDS011;4244;48.684;9.028;2022-11-15T08:59:41;2.30;;;1.70;;
8413;SDS011;4244;48.684;9.028;2022-11-15T09:02:10;3.50;;;2.30;;
8413;SDS011;4244;48.684;9.028;2022-11-15T09:04:39;1.77;;;1.67;;
8413;SDS011;4244;48.684;9.028;2022-11-15T09:07:06;2.50;;;2.13;;
8413;SDS011;4244;48.684;9.028;2022-11-15T09:09:32;2.87;;;2.13;;
8413;SDS011;4244;48.684;9.028;2022-11-15T09:11:58;2.27;;;2.00;;
8413;SDS011;4244;48.684;9.028;2022-11-15T09:14:23;3.13;;;2.00;;
8413;SDS011;4244;48.684;9.028;2022-11-15T09:16:49;3.37;;;2.00;;
8413;SDS011;4244;48.684;9.028;2022-11-15T09:19:14;3.00;;;2.17;;
8413;SDS011;4244;48.684;9.028;2022-11-15T09:21:40;3.20;;;1.90;;
8413;SDS011;4244;48.684;9.028;2022-11-15T09:24:08;2.50;;;1.87;;
8413;SDS011;4244;48.684;9.028;2022-11-15T09:26:33;3.80;;;2.13;;
8413;SDS011;4244;48.684;9.028;2022-11-15T09:28:59;2.87;;;1.90;;
8413;SDS011;4244;48.684;9.028;2022-11-15T09:31:26;2.80;;;2.30;;
8413;SDS011;4244;48.684;9.028;2022-11-15T09:33:52;2.20;;;1.77;;
8413;SDS011;4244;48.684;9.028;2022-11-15T09:36:17;3.83;;;1.40;;
8413;SDS011;4244;48.684;9.028;2022-11-15T09:38:43;2.93;;;2.63;;
8413;SDS011;4244;48.684;9.028;2022-11-15T09:49:20;4.77;;;2.07;;
8413;SDS011;4244;48.684;9.028;2022-11-15T09:51:47;2.37;;;2.00;;
8413;SDS011;4244;48.684;9.028;2022-11-15T09:54:26;4.07;;;2.27;;
8413;SDS011;4244;48.684;9.028;2022-11-15T09:57:18;2.60;;;2.10;;
8413;SDS011;4244;48.684;9.028;2022-11-15T10:00:13;3.93;;;2.50;;
8413;SDS011;4244;48.684;9.028;2022-11-15T10:03:11;3.00;;;2.33;;
8413;SDS011;4244;48.684;9.028;2022-11-15T10:05:57;2.63;;;2.00;;
8413;SDS011;4244;48.684;9.028;2022-11-15T10:11:22;3.23;;;2.30;;
8413;SDS011;4244;48.684;9.028;2022-11-15T10:13:54;2.93;;;2.03;;
8413;SDS011;4244;48.684;9.028;2022-11-15T10:22:30;3.23;;;2.70;;
8413;SDS011;4244;48.684;9.028;2022-11-15T10:25:06;2.63;;;2.00;;
8413;SDS011;4244;48.684;9.028;2022-11-15T10:27:41;3.00;;;2.13;;
8413;SDS011;4244;48.684;9.028;2022-11-15T10:30:16;4.73;;;2.80;;
8413;SDS011;4244;48.684;9.028;2022-11-15T10:32:43;2.73;;;2.13;;
8413;SDS011;4244;48.684;9.028;2022-11-15T10:35:21;2.60;;;2.40;;
8413;SDS011;4244;48.684;9.028;2022-11-15T10:37:47;4.03;;;2.27;;
8413;SDS011;4244;48.684;9.028;2022-11-15T10:40:23;3.60;;;2.50;;
8413;SDS011;4244;48.684;9.028;2022-11-15T10:43:04;2.67;;;2.40;;
8413;SDS011;4244;48.684;9.028;2022-11-15T10:45:36;5.10;;;2.63;;
8413;SDS011;4244;48.684;9.028;2022-11-15T10:50:38;2.30;;;2.07;;
8413;SDS011;4244;48.684;9.028;2022-11-15T10:53:18;3.33;;;2.03;;
8413;SDS011;4244;48.684;9.028;2022-11-15T10:55:46;2.53;;;1.90;;
8413;SDS011;4244;48.684;9.028;2022-11-15T10:58:30;2.40;;;1.93;;
8413;SDS011;4244;48.684;9.028;2022-11-15T11:01:09;2.20;;;1.93;;
8413;SDS011;4244;48.684;9.028;2022-11-15T11:06:51;2.30;;;2.03;;
8413;SDS011;4244;48.684;9.028;2022-11-15T11:11:57;2.60;;;1.53;;
8413;SDS011;4244;48.684;9.028;2022-11-15T11:14:33;2.80;;;1.77;;
8413;SDS011;4244;48.684;9.028;2022-11-15T11:17:02;2.73;;;1.83;;
8413;SDS011;4244;48.684;9.028;2022-11-15T11:25:21;1.80;;;1.53;;
8413;SDS011;4244;48.684;9.028;2022-11-15T11:27:59;3.10;;;1.80;;
8413;SDS011;4244;48.684;9.028;2022-11-15T11:33:31;2.07;;;1.80;;
8413;SDS011;4244;48.684;9.028;2022-11-15T11:36:00;2.40;;;1.70;;
8413;SDS011;4244;48.684;9.028;2022-11-15T11:38:57;2.60;;;1.70;;
8413;SDS011;4244;48.684;9.028;2022-11-15T11:45:05;2.10;;;1.40;;
8413;SDS011;4244;48.684;9.028;2022-11-15T11:47:47;2.80;;;1.73;;
8413;SDS011;4244;48.684;9.028;2022-11-15T11:50:19;2.67;;;1.53;;
8413;SDS011;4244;48.684;9.028;2022-11-15T11:52:57;2.43;;;1.80;;
8413;SDS011;4244;48.684;9.028;2022-11-15T11:55:30;2.47;;;1.70;;
8413;SDS011;4244;48.684;9.028;2022-11-15T11:58:06;4.27;;;2.10;;
8413;SDS011;4244;48.684;9.028;2022-11-15T12:00:52;2.27;;;1.97;;
8413;SDS011;4244;48.684;9.028;2022-11-15T12:03:38;2.03;;;1.40;;
8413;SDS011;4244;48.684;9.028;2022-11-15T12:06:07;3.10;;;1.90;;
8413;SDS011;4244;48.684;9.028;2022-11-15T12:08:43;2.60;;;2.40;;
8413;SDS011;4244;48.684;9.028;2022-11-15T12:11:14;2.60;;;2.40;;
8413;SDS011;4244;48.684;9.028;2022-11-15T12:13:53;2.43;;;1.83;;
8413;SDS011;4244;48.684;9.028;2022-11-15T12:16:30;3.00;;;2.10;;
8413;SDS011;4244;48.684;9.028;2022-11-15T12:18:59;2.70;;;2.10;;
8413;SDS011;4244;48.684;9.028;2022-11-15T12:27:02;1.87;;;1.53;;
8413;SDS011;4244;48.684;9.028;2022-11-15T12:29:59;2.70;;;2.00;;
8413;SDS011;4244;48.684;9.028;2022-11-15T12:32:31;4.13;;;1.40;;
8413;SDS011;4244;48.684;9.028;2022-11-15T12:34:59;2.77;;;2.10;;
8413;SDS011;4244;48.684;9.028;2022-11-15T12:37:33;2.00;;;1.57;;
8413;SDS011;4244;48.684;9.028;2022-11-15T12:42:38;2.43;;;2.00;;
8413;SDS011;4244;48.684;9.028;2022-11-15T12:47:50;2.30;;;2.03;;
8413;SDS011;4244;48.684;9.028;2022-11-15T12:50:15;4.17;;;2.37;;
8413;SDS011;4244;48.684;9.028;2022-11-15T12:53:25;2.17;;;1.67;;
8413;SDS011;4244;48.684;9.028;2022-11-15T12:55:46;2.67;;;1.90;;
8413;SDS011;4244;48.684;9.028;2022-11-15T13:06:46;2.23;;;1.63;;
8413;SDS011;4244;48.684;9.028;2022-11-15T13:12:01;2.30;;;2.00;;
8413;SDS011;4244;48.684;9.028;2022-11-15T13:19:43;1.90;;;1.50;;
8413;SDS011;4244;48.684;9.028;2022-11-15T13:22:11;2.00;;;1.80;;
8413;SDS011;4244;48.684;9.028;2022-11-15T13:24:55;2.83;;;1.83;;
8413;SDS011;4244;48.684;9.028;2022-11-15T13:27:21;1.60;;;1.43;;
8413;SDS011;4244;48.684;9.028;2022-11-15T13:29:47;3.57;;;1.93;;
8413;SDS011;4244;48.684;9.028;2022-11-15T13:32:13;2.83;;;2.13;;
8413;SDS011;4244;48.684;9.028;2022-11-15T13:34:44;2.07;;;1.87;;
8413;SDS011;4244;48.684;9.028;2022-11-15T13:39:45;2.10;;;1.90;;
8413;SDS011;4244;48.684;9.028;2022-11-15T13:42:17;1.97;;;1.57;;
8413;SDS011;4244;48.684;9.028;2022-11-15T13:44:56;3.17;;;2.00;;
8413;SDS011;4244;48.684;9.028;2022-11-15T13:47:25;2.20;;;1.67;;
8413;SDS011;4244;48.684;9.028;2022-11-15T13:49:52;3.50;;;1.97;;
8413;SDS011;4244;48.684;9.028;2022-11-15T13:52:18;3.23;;;2.30;;
8413;SDS011;4244;48.684;9.028;2022-11-15T13:54:45;3.33;;;1.90;;
8413;SDS011;4244;48.684;9.028;2022-11-15T13:57:29;2.87;;;2.10;;
8413;SDS011;4244;48.684;9.028;2022-11-15T14:00:00;2.60;;;2.10;;
8413;SDS011;4244;48.684;9.028;2022-11-15T14:02:34;2.70;;;2.07;;
8413;SDS011;4244;48.684;9.028;2022-11-15T14:10:27;4.13;;;2.50;;
8413;SDS011;4244;48.684;9.028;2022-11-15T14:12:57;3.13;;;1.97;;
8413;SDS011;4244;48.684;9.028;2022-11-15T14:15:25;3.77;;;2.10;;
8413;SDS011;4244;48.684;9.028;2022-11-15T14:17:51;3.50;;;2.30;;
8413;SDS011;4244;48.684;9.028;2022-11-15T14:20:26;3.10;;;2.43;;
8413;SDS011;4244;48.684;9.028;2022-11-15T14:22:59;3.30;;;2.17;;
8413;SDS011;4244;48.684;9.028;2022-11-15T14:25:30;3.87;;;2.60;;
8413;SDS011;4244;48.684;9.028;2022-11-15T14:28:16;2.73;;;2.47;;
8413;SDS011;4244;48.684;9.028;2022-11-15T14:30:56;8.70;;;2.73;;
8413;SDS011;4244;48.684;9.028;2022-11-15T14:33:38;2.90;;;2.40;;
8413;SDS011;4244;48.684;9.028;2022-11-15T14:36:15;2.40;;;2.20;;
8413;SDS011;4244;48.684;9.028;2022-11-15T14:38:45;3.73;;;3.10;;
8413;SDS011;4244;48.684;9.028;2022-11-15T14:41:18;3.30;;;2.50;;
8413;SDS011;4244;48.684;9.028;2022-11-15T14:43:48;3.20;;;2.77;;
8413;SDS011;4244;48.684;9.028;2022-11-15T14:46:14;4.23;;;3.00;;
8413;SDS011;4244;48.684;9.028;2022-11-15T14:48:39;4.70;;;3.40;;
8413;SDS011;4244;48.684;9.028;2022-11-15T14:51:11;3.90;;;3.40;;
8413;SDS011;4244;48.684;9.028;2022-11-15T14:53:39;4.10;;;3.10;;
8413;SDS011;4244;48.684;9.028;2022-11-15T14:56:05;8.50;;;4.00;;
8413;SDS011;4244;48.684;9.028;2022-11-15T14:58:31;4.77;;;4.27;;
8413;SDS011;4244;48.684;9.028;2022-11-15T15:00:56;6.03;;;4.40;;
8413;SDS011;4244;48.684;9.028;2022-11-15T15:03:22;6.13;;;3.93;;
8413;SDS011;4244;48.684;9.028;2022-11-15T15:05:47;4.50;;;3.77;;
8413;SDS011;4244;48.684;9.028;2022-11-15T15:08:13;7.20;;;3.53;;
8413;SDS011;4244;48.684;9.028;2022-11-15T15:10:40;3.30;;;3.00;;
8413;SDS011;4244;48.684;9.028;2022-11-15T15:13:18;3.27;;;2.97;;
8413;SDS011;4244;48.684;9.028;2022-11-15T15:15:50;3.10;;;2.80;;
8413;SDS011;4244;48.684;9.028;2022-11-15T15:18:17;4.77;;;2.77;;
8413;SDS011;4244;48.684;9.028;2022-11-15T15:20:44;3.53;;;3.03;;
8413;SDS011;4244;48.684;9.028;2022-11-15T15:23:25;4.27;;;2.90;;
8413;SDS011;4244;48.684;9.028;2022-11-15T15:25:56;3.57;;;3.17;;
8413;SDS011;4244;48.684;9.028;2022-11-15T15:28:31;4.60;;;3.20;;
8413;SDS011;4244;48.684;9.028;2022-11-15T15:30:56;4.20;;;3.20;;
8413;SDS011;4244;48.684;9.028;2022-11-15T15:33:23;3.77;;;3.17;;
8413;SDS011;4244;48.684;9.028;2022-11-15T15:35:49;3.87;;;3.07;;
8413;SDS011;4244;48.684;9.028;2022-11-15T15:38:14;5.40;;;3.17;;
8413;SDS011;4244;48.684;9.028;2022-11-15T15:40:40;5.90;;;3.27;;
8413;SDS011;4244;48.684;9.028;2022-11-15T15:43:06;3.43;;;3.13;;
8413;SDS011;4244;48.684;9.028;2022-11-15T15:45:34;4.40;;;3.20;;
8413;SDS011;4244;48.684;9.028;2022-11-15T15:48:04;4.23;;;3.10;;
8413;SDS011;4244;48.684;9.028;2022-11-15T15:50:34;4.30;;;3.90;;
8413;SDS011;4244;48.684;9.028;2022-11-15T15:53:01;4.37;;;3.97;;
8413;SDS011;4244;48.684;9.028;2022-11-15T15:55:27;5.03;;;3.30;;
8413;SDS011;4244;48.684;9.028;2022-11-15T15:57:53;4.90;;;3.83;;
8413;SDS011;4244;48.684;9.028;2022-11-15T16:00:19;4.90;;;4.03;;
8413;SDS011;4244;48.684;9.028;2022-11-15T16:02:46;4.53;;;3.40;;
8413;SDS011;4244;48.684;9.028;2022-11-15T16:05:12;4.63;;;3.87;;
8413;SDS011;4244;48.684;9.028;2022-11-15T16:07:38;3.90;;;3.47;;
8413;SDS011;4244;48.684;9.028;2022-11-15T16:12:50;5.40;;;3.93;;
8413;SDS011;4244;48.684;9.028;2022-11-15T16:15:17;4.17;;;3.47;;
8413;SDS011;4244;48.684;9.028;2022-11-15T16:17:48;4.70;;;3.70;;
8413;SDS011;4244;48.684;9.028;2022-11-15T16:22:54;4.80;;;3.80;;
8413;SDS011;4244;48.684;9.028;2022-11-15T16:25:20;3.37;;;2.93;;
8413;SDS011;4244;48.684;9.028;2022-11-15T16:27:45;5.10;;;3.63;;
8413;SDS011;4244;48.684;9.028;2022-11-15T16:30:15;4.00;;;3.60;;
8413;SDS011;4244;48.684;9.028;2022-11-15T16:32:42;4.00;;;3.20;;
8413;SDS011;4244;48.684;9.028;2022-11-15T16:35:11;4.20;;;3.80;;
8413;SDS011;4244;48.684;9.028;2022-11-15T16:37:40;4.17;;;3.77;;
8413;SDS011;4244;48.684;9.028;2022-11-15T16:42:50;3.10;;;2.80;;
8413;SDS011;4244;48.684;9.028;2022-11-15T16:45:16;4.13;;;3.73;;
8413;SDS011;4244;48.684;9.028;2022-11-15T16:47:42;3.00;;;2.80;;
8413;SDS011;4244;48.684;9.028;2022-11-15T16:50:14;3.90;;;3.60;;
8413;SDS011;4244;48.684;9.028;2022-11-15T16:52:49;5.80;;;4.03;;
8413;SDS011;4244;48.684;9.028;2022-11-15T16:55:15;3.90;;;3.27;;
8413;SDS011;4244;48.684;9.028;2022-11-15T16:57:41;4.10;;;3.70;;
8413;SDS011;4244;48.684;9.028;2022-11-15T17:00:08;4.13;;;3.73;;
8413;SDS011;4244;48.684;9.028;2022-11-15T17:02:41;5.47;;;4.03;;
8413;SDS011;4244;48.684;9.028;2022-11-15T17:05:11;5.33;;;4.47;;
8413;SDS011;4244;48.684;9.028;2022-11-15T17:07:38;4.67;;;4.10;;
8413;SDS011;4244;48.684;9.028;2022-11-15T17:10:04;5.40;;;4.90;;
8413;SDS011;4244;48.684;9.028;2022-11-15T17:12:32;5.37;;;4.87;;
8413;SDS011;4244;48.684;9.028;2022-11-15T17:14:59;5.47;;;4.87;;
8413;SDS011;4244;48.684;9.028;2022-11-15T17:17:24;5.27;;;4.50;;
8413;SDS011;4244;48.684;9.028;2022-11-15T17:19:50;6.40;;;5.57;;
8413;SDS011;4244;48.684;9.028;2022-11-15T17:22:17;5.53;;;5.03;;
8413;SDS011;4244;48.684;9.028;2022-11-15T17:24:43;8.17;;;4.63;;
8413;SDS011;4244;48.684;9.028;2022-11-15T17:27:09;5.10;;;4.60;;
8413;SDS011;4244;48.684;9.028;2022-11-15T17:29:34;8.30;;;5.13;;
8413;SDS011;4244;48.684;9.028;2022-11-15T17:32:00;6.07;;;4.77;;